EDW245Z LEPA-LSZH
Flight info
| Callsign | EDW245Z |
|---|---|
| Flight time | 1h 32m |
| Altitude | 40000 |
| Route | MEROS DCT LAPIT DCT CHELY DCT LUMAS DCT NIBIK DCT STP DCT RAPED DCT PIGOS DCT EKSID DCT NOSTA DCT NOPMU DCT CANNE Z651 KELIP |
| Aircraft | A359/H-SDE2E3GHIJ3J4J5LM1ORWXY/LB1D1 |
Departure
| Time | 2026-05-05 11:46 |
|---|---|
| Airport | Palma de Mallorca Airport (LEPA) |
Arrival
| Time | 2026-05-05 13:18 |
|---|---|
| Airport | Zürich Airport (LSZH) |
| Time | Latitude | Longitude | Altitude | Speed | Heading |
|---|---|---|---|---|---|
| 2026-05-05 11:25 | 39.54945 | 2.73766 | 45 ft | 0 kts | 239° |
| 2026-05-05 11:36 | 39.54953 | 2.73784 | 44 ft | 4 kts | 239° |
| 2026-05-05 11:36 | 39.54967 | 2.73814 | 41 ft | 4 kts | 239° |
| 2026-05-05 11:37 | 39.54981 | 2.73844 | 42 ft | 3 kts | 239° |
| 2026-05-05 11:37 | 39.54990 | 2.73870 | 41 ft | 4 kts | 272° |
| 2026-05-05 11:37 | 39.54981 | 2.73896 | 39 ft | 4 kts | 326° |
| 2026-05-05 11:37 | 39.54962 | 2.73911 | 45 ft | 1 kts | 329° |
| 2026-05-05 11:38 | 39.54958 | 2.73913 | 45 ft | 0 kts | 329° |
| 2026-05-05 11:40 | 39.54978 | 2.73898 | 45 ft | 10 kts | 328° |
| 2026-05-05 11:40 | 39.55049 | 2.73842 | 45 ft | 14 kts | 328° |
| 2026-05-05 11:40 | 39.55126 | 2.73780 | 45 ft | 0 kts | 328° |
| 2026-05-05 11:40 | 39.55141 | 2.73777 | 45 ft | 5 kts | 1° |
| 2026-05-05 11:41 | 39.55170 | 2.73797 | 45 ft | 7 kts | 37° |
| 2026-05-05 11:41 | 39.55207 | 2.73815 | 44 ft | 5 kts | 2° |
| 2026-05-05 11:41 | 39.55237 | 2.73801 | 45 ft | 6 kts | 338° |
| 2026-05-05 11:41 | 39.55281 | 2.73768 | 45 ft | 9 kts | 327° |
| 2026-05-05 11:42 | 39.55343 | 2.73719 | 45 ft | 12 kts | 328° |
| 2026-05-05 11:42 | 39.55427 | 2.73651 | 44 ft | 16 kts | 328° |
| 2026-05-05 11:42 | 39.55532 | 2.73568 | 44 ft | 19 kts | 328° |
| 2026-05-05 11:42 | 39.55639 | 2.73499 | 44 ft | 9 kts | 0° |
| 2026-05-05 11:43 | 39.55680 | 2.73544 | 44 ft | 11 kts | 63° |
| 2026-05-05 11:43 | 39.55737 | 2.73673 | 44 ft | 21 kts | 60° |
| 2026-05-05 11:43 | 39.55830 | 2.73870 | 44 ft | 28 kts | 61° |
| 2026-05-05 11:43 | 39.55938 | 2.74098 | 44 ft | 32 kts | 58° |
| 2026-05-05 11:44 | 39.56014 | 2.74248 | 44 ft | 10 kts | 41° |
| 2026-05-05 11:44 | 39.56083 | 2.74298 | 44 ft | 13 kts | 26° |
| 2026-05-05 11:44 | 39.56179 | 2.74347 | 44 ft | 14 kts | 5° |
| 2026-05-05 11:44 | 39.56233 | 2.74300 | 44 ft | 7 kts | 291° |
| 2026-05-05 11:45 | 39.56222 | 2.74256 | 44 ft | 7 kts | 240° |
| 2026-05-05 11:45 | 39.56221 | 2.74252 | 44 ft | 0 kts | 240° |
| 2026-05-05 11:45 | 39.56220 | 2.74251 | 44 ft | 0 kts | 240° |
| 2026-05-05 11:45 | 39.56206 | 2.74222 | 44 ft | 25 kts | 238° |
| 2026-05-05 11:46 | 39.55954 | 2.73686 | 45 ft | 111 kts | 238° |
| 2026-05-05 11:46 | 39.55423 | 2.72591 | 231 ft | 164 kts | 237° |
| 2026-05-05 11:46 | 39.54788 | 2.71313 | 1065 ft | 171 kts | 237° |
| 2026-05-05 11:46 | 39.54155 | 2.69941 | 1876 ft | 183 kts | 238° |
| 2026-05-05 11:47 | 39.53507 | 2.68480 | 2497 ft | 191 kts | 240° |
| 2026-05-05 11:47 | 39.52851 | 2.66941 | 3131 ft | 198 kts | 240° |
| 2026-05-05 11:47 | 39.52172 | 2.65394 | 3823 ft | 200 kts | 235° |
| 2026-05-05 11:47 | 39.51261 | 2.64008 | 4476 ft | 204 kts | 221° |
| 2026-05-05 11:48 | 39.48706 | 2.62419 | 5829 ft | 207 kts | 194° |
| 2026-05-05 11:48 | 39.47288 | 2.62189 | 6649 ft | 202 kts | 186° |
| 2026-05-05 11:48 | 39.45917 | 2.62097 | 7472 ft | 194 kts | 187° |
| 2026-05-05 11:49 | 39.44579 | 2.61945 | 8156 ft | 194 kts | 189° |
| 2026-05-05 11:49 | 39.43192 | 2.61767 | 8510 ft | 212 kts | 188° |
| 2026-05-05 11:49 | 39.41653 | 2.61702 | 8842 ft | 231 kts | 182° |
| 2026-05-05 11:49 | 39.39977 | 2.61852 | 9179 ft | 252 kts | 176° |
| 2026-05-05 11:50 | 39.38181 | 2.62298 | 9521 ft | 274 kts | 169° |
| 2026-05-05 11:50 | 39.36350 | 2.63239 | 9949 ft | 293 kts | 152° |
| 2026-05-05 11:50 | 39.34778 | 2.65020 | 10449 ft | 309 kts | 134° |
| 2026-05-05 11:50 | 39.33467 | 2.67305 | 10853 ft | 325 kts | 126° |
| 2026-05-05 11:51 | 39.32388 | 2.69946 | 11277 ft | 339 kts | 117° |
| 2026-05-05 11:51 | 39.31548 | 2.72856 | 11707 ft | 352 kts | 111° |
| 2026-05-05 11:51 | 39.30940 | 2.75972 | 12160 ft | 363 kts | 105° |
| 2026-05-05 11:51 | 39.30414 | 2.79214 | 12526 ft | 374 kts | 105° |
| 2026-05-05 11:52 | 39.29882 | 2.82544 | 12918 ft | 383 kts | 104° |
| 2026-05-05 11:52 | 39.29493 | 2.85962 | 13516 ft | 386 kts | 100° |
| 2026-05-05 11:52 | 39.29162 | 2.89416 | 14032 ft | 389 kts | 100° |
| 2026-05-05 11:52 | 39.29054 | 2.92891 | 14482 ft | 397 kts | 87° |
| 2026-05-05 11:53 | 39.29754 | 2.96358 | 14960 ft | 403 kts | 66° |
| 2026-05-05 11:53 | 39.31075 | 2.99575 | 15449 ft | 407 kts | 60° |
| 2026-05-05 11:53 | 39.32510 | 3.02750 | 15942 ft | 412 kts | 59° |
| 2026-05-05 11:53 | 39.33965 | 3.05963 | 16418 ft | 416 kts | 59° |
| 2026-05-05 11:54 | 39.35419 | 3.09200 | 16988 ft | 417 kts | 59° |
| 2026-05-05 11:54 | 39.36877 | 3.12462 | 17485 ft | 421 kts | 59° |
| 2026-05-05 11:54 | 39.38343 | 3.15754 | 17961 ft | 425 kts | 59° |
| 2026-05-05 11:54 | 39.39826 | 3.19092 | 18427 ft | 429 kts | 59° |
| 2026-05-05 11:55 | 39.41315 | 3.22452 | 18826 ft | 433 kts | 60° |
| 2026-05-05 11:55 | 39.42819 | 3.25848 | 19228 ft | 437 kts | 60° |
| 2026-05-05 11:55 | 39.44360 | 3.29253 | 19623 ft | 441 kts | 58° |
| 2026-05-05 11:55 | 39.45946 | 3.32672 | 20005 ft | 445 kts | 58° |
| 2026-05-05 11:56 | 39.47520 | 3.36071 | 20400 ft | 448 kts | 58° |
| 2026-05-05 11:56 | 39.49149 | 3.39598 | 20784 ft | 452 kts | 59° |
| 2026-05-05 11:56 | 39.50747 | 3.43070 | 21167 ft | 456 kts | 59° |
| 2026-05-05 11:56 | 39.52398 | 3.46661 | 21558 ft | 460 kts | 59° |
| 2026-05-05 11:57 | 39.54012 | 3.50181 | 21938 ft | 463 kts | 59° |
| 2026-05-05 11:57 | 39.55662 | 3.53784 | 22313 ft | 467 kts | 59° |
| 2026-05-05 11:57 | 39.57319 | 3.57408 | 22682 ft | 470 kts | 59° |
| 2026-05-05 11:57 | 39.58997 | 3.61080 | 23052 ft | 474 kts | 59° |
| 2026-05-05 11:58 | 39.60683 | 3.64775 | 23419 ft | 477 kts | 59° |
| 2026-05-05 11:58 | 39.62376 | 3.68491 | 23744 ft | 480 kts | 59° |
| 2026-05-05 11:58 | 39.64080 | 3.72235 | 24062 ft | 483 kts | 59° |
| 2026-05-05 11:58 | 39.65790 | 3.75998 | 24385 ft | 485 kts | 59° |
| 2026-05-05 11:59 | 39.67511 | 3.79786 | 24724 ft | 488 kts | 59° |
| 2026-05-05 11:59 | 39.69237 | 3.83593 | 25073 ft | 490 kts | 59° |
| 2026-05-05 11:59 | 39.70965 | 3.87409 | 25423 ft | 492 kts | 59° |
| 2026-05-05 11:59 | 39.72708 | 3.91262 | 25757 ft | 495 kts | 59° |
| 2026-05-05 12:00 | 39.74454 | 3.95126 | 26123 ft | 498 kts | 59° |
| 2026-05-05 12:00 | 39.76211 | 3.99018 | 26504 ft | 501 kts | 60° |
| 2026-05-05 12:00 | 39.77977 | 4.02937 | 26876 ft | 504 kts | 60° |
| 2026-05-05 12:00 | 39.79752 | 4.06880 | 27252 ft | 507 kts | 60° |
| 2026-05-05 12:01 | 39.81538 | 4.10853 | 27675 ft | 510 kts | 60° |
| 2026-05-05 12:01 | 39.83350 | 4.14836 | 28076 ft | 514 kts | 58° |
| 2026-05-05 12:01 | 39.85571 | 4.18482 | 28471 ft | 515 kts | 42° |
| 2026-05-05 12:01 | 39.88408 | 4.21294 | 28910 ft | 511 kts | 25° |
| 2026-05-05 12:02 | 39.91610 | 4.23047 | 29331 ft | 503 kts | 9° |
| 2026-05-05 12:02 | 39.95023 | 4.23937 | 29774 ft | 501 kts | 2° |
| 2026-05-05 12:02 | 39.98481 | 4.24647 | 30189 ft | 505 kts | 2° |
| 2026-05-05 12:02 | 40.01963 | 4.25384 | 30571 ft | 509 kts | 3° |
| 2026-05-05 12:03 | 40.05465 | 4.26160 | 30984 ft | 512 kts | 3° |
| 2026-05-05 12:03 | 40.08993 | 4.26964 | 31392 ft | 515 kts | 4° |
| 2026-05-05 12:03 | 40.12534 | 4.27784 | 31801 ft | 518 kts | 4° |
| 2026-05-05 12:03 | 40.16087 | 4.28615 | 32199 ft | 520 kts | 4° |
| 2026-05-05 12:04 | 40.19663 | 4.29455 | 32616 ft | 524 kts | 4° |
| 2026-05-05 12:04 | 40.23262 | 4.30302 | 32965 ft | 528 kts | 4° |
| 2026-05-05 12:04 | 40.26883 | 4.31158 | 33329 ft | 530 kts | 4° |
| 2026-05-05 12:04 | 40.30520 | 4.32020 | 33678 ft | 533 kts | 4° |
| 2026-05-05 12:05 | 40.34127 | 4.32875 | 34005 ft | 535 kts | 4° |
| 2026-05-05 12:05 | 40.37757 | 4.33737 | 34324 ft | 537 kts | 4° |
| 2026-05-05 12:05 | 40.41422 | 4.34610 | 34805 ft | 536 kts | 4° |
| 2026-05-05 12:05 | 40.45097 | 4.35485 | 35189 ft | 536 kts | 4° |
| 2026-05-05 12:06 | 40.48761 | 4.36359 | 35662 ft | 534 kts | 4° |
| 2026-05-05 12:06 | 40.52412 | 4.37234 | 36189 ft | 532 kts | 4° |
| 2026-05-05 12:06 | 40.56039 | 4.38104 | 36680 ft | 530 kts | 4° |
| 2026-05-05 12:06 | 40.59661 | 4.38970 | 37168 ft | 528 kts | 3° |
| 2026-05-05 12:07 | 40.63270 | 4.39833 | 37652 ft | 526 kts | 3° |
| 2026-05-05 12:07 | 40.66860 | 4.40692 | 38126 ft | 524 kts | 3° |
| 2026-05-05 12:07 | 40.70448 | 4.41551 | 38591 ft | 522 kts | 3° |
| 2026-05-05 12:07 | 40.74016 | 4.42406 | 38949 ft | 521 kts | 4° |
| 2026-05-05 12:08 | 40.77584 | 4.43263 | 39275 ft | 520 kts | 4° |
| 2026-05-05 12:08 | 40.81098 | 4.44107 | 39569 ft | 520 kts | 4° |
| 2026-05-05 12:08 | 40.84655 | 4.44962 | 39853 ft | 520 kts | 4° |
| 2026-05-05 12:08 | 40.88227 | 4.45821 | 39942 ft | 521 kts | 4° |
| 2026-05-05 12:09 | 40.95352 | 4.47543 | 39944 ft | 521 kts | 4° |
| 2026-05-05 12:09 | 41.02481 | 4.49274 | 39944 ft | 521 kts | 4° |
| 2026-05-05 12:10 | 41.09619 | 4.51014 | 39946 ft | 521 kts | 4° |
| 2026-05-05 12:10 | 41.16753 | 4.52754 | 39945 ft | 521 kts | 4° |
| 2026-05-05 12:11 | 41.23896 | 4.54494 | 39943 ft | 521 kts | 4° |
| 2026-05-05 12:11 | 41.29834 | 4.55945 | 39947 ft | 522 kts | 4° |
| 2026-05-05 12:12 | 41.36975 | 4.57694 | 39938 ft | 522 kts | 4° |
| 2026-05-05 12:12 | 41.43958 | 4.59410 | 39946 ft | 522 kts | 4° |
| 2026-05-05 12:13 | 41.51099 | 4.61167 | 39951 ft | 522 kts | 4° |
| 2026-05-05 12:13 | 41.58239 | 4.62929 | 39945 ft | 522 kts | 4° |
| 2026-05-05 12:14 | 41.65384 | 4.64696 | 39947 ft | 522 kts | 4° |
| 2026-05-05 12:14 | 41.72506 | 4.66808 | 39944 ft | 529 kts | 14° |
| 2026-05-05 12:15 | 41.79218 | 4.71017 | 39948 ft | 535 kts | 24° |
| 2026-05-05 12:15 | 41.85747 | 4.75873 | 39948 ft | 537 kts | 25° |
| 2026-05-05 12:16 | 41.92238 | 4.80835 | 39953 ft | 537 kts | 26° |
| 2026-05-05 12:16 | 41.98732 | 4.85784 | 39952 ft | 536 kts | 25° |
| 2026-05-05 12:17 | 42.05187 | 4.90682 | 39949 ft | 536 kts | 25° |
| 2026-05-05 12:17 | 42.11683 | 4.95611 | 39939 ft | 536 kts | 25° |
| 2026-05-05 12:18 | 42.18167 | 5.00543 | 39953 ft | 535 kts | 25° |
| 2026-05-05 12:18 | 42.24647 | 5.05487 | 39953 ft | 535 kts | 26° |
| 2026-05-05 12:19 | 42.31122 | 5.10436 | 39962 ft | 534 kts | 26° |
| 2026-05-05 12:19 | 42.37594 | 5.15397 | 39950 ft | 534 kts | 26° |
| 2026-05-05 12:20 | 42.44011 | 5.20328 | 39949 ft | 534 kts | 26° |
| 2026-05-05 12:20 | 42.50480 | 5.25309 | 39965 ft | 534 kts | 26° |
| 2026-05-05 12:21 | 42.56926 | 5.30285 | 39950 ft | 533 kts | 26° |
| 2026-05-05 12:21 | 42.63365 | 5.35306 | 39941 ft | 534 kts | 28° |
| 2026-05-05 12:22 | 42.69018 | 5.41894 | 39949 ft | 540 kts | 49° |
| 2026-05-05 12:22 | 42.73249 | 5.50251 | 39948 ft | 541 kts | 57° |
| 2026-05-05 12:23 | 42.77181 | 5.58991 | 39952 ft | 541 kts | 58° |
| 2026-05-05 12:23 | 42.81070 | 5.67774 | 39952 ft | 542 kts | 58° |
| 2026-05-05 12:24 | 42.84984 | 5.76555 | 39950 ft | 542 kts | 58° |
| 2026-05-05 12:24 | 42.88913 | 5.85337 | 39960 ft | 540 kts | 58° |
| 2026-05-05 12:25 | 42.92791 | 5.94016 | 39962 ft | 538 kts | 58° |
| 2026-05-05 12:25 | 42.96679 | 6.02746 | 39964 ft | 538 kts | 58° |
| 2026-05-05 12:26 | 43.00561 | 6.11489 | 39955 ft | 538 kts | 58° |
| 2026-05-05 12:26 | 43.04440 | 6.20256 | 39967 ft | 539 kts | 58° |
| 2026-05-05 12:27 | 43.08307 | 6.29019 | 39970 ft | 538 kts | 59° |
| 2026-05-05 12:27 | 43.12169 | 6.37799 | 39960 ft | 537 kts | 59° |
| 2026-05-05 12:28 | 43.16014 | 6.46568 | 39945 ft | 537 kts | 59° |
| 2026-05-05 12:28 | 43.19852 | 6.55345 | 39944 ft | 537 kts | 59° |
| 2026-05-05 12:29 | 43.23950 | 6.63895 | 39963 ft | 536 kts | 54° |
| 2026-05-05 12:29 | 43.28299 | 6.72206 | 39953 ft | 535 kts | 53° |
| 2026-05-05 12:30 | 43.32675 | 6.80479 | 39957 ft | 535 kts | 53° |
| 2026-05-05 12:30 | 43.37014 | 6.88703 | 39972 ft | 535 kts | 53° |
| 2026-05-05 12:31 | 43.41374 | 6.97003 | 39964 ft | 535 kts | 53° |
| 2026-05-05 12:31 | 43.45720 | 7.05311 | 39965 ft | 534 kts | 54° |
| 2026-05-05 12:32 | 43.50046 | 7.13608 | 39962 ft | 533 kts | 54° |
| 2026-05-05 12:32 | 43.54367 | 7.21916 | 39961 ft | 533 kts | 54° |
| 2026-05-05 12:33 | 43.58676 | 7.30222 | 39961 ft | 533 kts | 54° |
| 2026-05-05 12:33 | 43.62985 | 7.38549 | 39967 ft | 533 kts | 54° |
| 2026-05-05 12:34 | 43.67286 | 7.46881 | 39964 ft | 532 kts | 54° |
| 2026-05-05 12:34 | 43.71574 | 7.55224 | 39960 ft | 532 kts | 54° |
| 2026-05-05 12:35 | 43.75859 | 7.63584 | 39955 ft | 532 kts | 54° |
| 2026-05-05 12:35 | 43.80146 | 7.71905 | 39959 ft | 530 kts | 52° |
| 2026-05-05 12:36 | 43.85293 | 7.79033 | 39962 ft | 527 kts | 38° |
| 2026-05-05 12:36 | 43.91020 | 7.85363 | 39969 ft | 526 kts | 36° |
| 2026-05-05 12:37 | 43.97299 | 7.90405 | 39970 ft | 520 kts | 18° |
| 2026-05-05 12:37 | 44.04132 | 7.93623 | 39966 ft | 518 kts | 14° |
| 2026-05-05 12:38 | 44.11033 | 7.96546 | 39969 ft | 518 kts | 13° |
| 2026-05-05 12:38 | 44.17925 | 7.99450 | 39972 ft | 518 kts | 14° |
| 2026-05-05 12:39 | 44.24836 | 8.02405 | 39967 ft | 520 kts | 14° |
| 2026-05-05 12:39 | 44.31749 | 8.05389 | 39972 ft | 520 kts | 14° |
| 2026-05-05 12:40 | 44.38663 | 8.08385 | 39976 ft | 521 kts | 14° |
| 2026-05-05 12:40 | 44.45585 | 8.11390 | 39968 ft | 521 kts | 14° |
| 2026-05-05 12:41 | 44.52520 | 8.14410 | 39976 ft | 521 kts | 14° |
| 2026-05-05 12:41 | 44.59448 | 8.17430 | 39982 ft | 521 kts | 14° |
| 2026-05-05 12:42 | 44.66374 | 8.20460 | 39971 ft | 521 kts | 14° |
| 2026-05-05 12:42 | 44.73305 | 8.23497 | 39992 ft | 522 kts | 14° |
| 2026-05-05 12:43 | 44.80236 | 8.26542 | 39979 ft | 522 kts | 14° |
| 2026-05-05 12:43 | 44.87126 | 8.29576 | 39978 ft | 522 kts | 14° |
| 2026-05-05 12:44 | 44.94064 | 8.32640 | 39981 ft | 522 kts | 14° |
| 2026-05-05 12:44 | 45.01001 | 8.35712 | 39987 ft | 522 kts | 14° |
| 2026-05-05 12:45 | 45.07936 | 8.38790 | 40003 ft | 523 kts | 14° |
| 2026-05-05 12:45 | 45.14877 | 8.41880 | 39982 ft | 523 kts | 14° |
| 2026-05-05 12:46 | 45.21819 | 8.44977 | 40026 ft | 523 kts | 14° |
| 2026-05-05 12:46 | 45.28761 | 8.48081 | 40039 ft | 523 kts | 15° |
| 2026-05-05 12:47 | 45.35696 | 8.51191 | 40050 ft | 522 kts | 15° |
| 2026-05-05 12:47 | 45.42627 | 8.54307 | 40051 ft | 522 kts | 15° |
| 2026-05-05 12:48 | 45.49537 | 8.57421 | 39992 ft | 522 kts | 15° |
| 2026-05-05 12:48 | 45.56422 | 8.60533 | 39997 ft | 521 kts | 15° |
| 2026-05-05 12:49 | 45.63284 | 8.63642 | 39998 ft | 520 kts | 15° |
| 2026-05-05 12:49 | 45.70139 | 8.66756 | 39997 ft | 519 kts | 15° |
| 2026-05-05 12:50 | 45.77024 | 8.69890 | 40011 ft | 519 kts | 15° |
| 2026-05-05 12:50 | 45.83909 | 8.73033 | 40012 ft | 519 kts | 15° |
| 2026-05-05 12:51 | 45.90784 | 8.76181 | 39993 ft | 519 kts | 15° |
| 2026-05-05 12:51 | 45.97668 | 8.79340 | 39993 ft | 519 kts | 15° |
| 2026-05-05 12:52 | 46.04402 | 8.82438 | 39999 ft | 518 kts | 15° |
| 2026-05-05 12:52 | 46.11210 | 8.85578 | 40019 ft | 517 kts | 15° |
| 2026-05-05 12:53 | 46.18156 | 8.87472 | 39792 ft | 508 kts | 358° |
| 2026-05-05 12:53 | 46.21678 | 8.87331 | 39561 ft | 506 kts | 352° |
| 2026-05-05 12:53 | 46.25194 | 8.86936 | 39334 ft | 506 kts | 351° |
| 2026-05-05 12:54 | 46.31584 | 8.85997 | 38919 ft | 505 kts | 350° |
| 2026-05-05 12:54 | 46.35078 | 8.85438 | 38694 ft | 506 kts | 350° |
| 2026-05-05 12:54 | 46.38571 | 8.84877 | 38443 ft | 506 kts | 350° |
| 2026-05-05 12:55 | 46.42079 | 8.84323 | 38138 ft | 507 kts | 350° |
| 2026-05-05 12:55 | 46.45595 | 8.83772 | 37870 ft | 509 kts | 350° |
| 2026-05-05 12:55 | 46.49129 | 8.83228 | 37586 ft | 511 kts | 350° |
| 2026-05-05 12:55 | 46.52670 | 8.82692 | 37309 ft | 512 kts | 350° |
| 2026-05-05 12:56 | 46.56218 | 8.82158 | 37044 ft | 513 kts | 350° |
| 2026-05-05 12:56 | 46.59773 | 8.81623 | 36514 ft | 514 kts | 350° |
| 2026-05-05 12:56 | 46.63332 | 8.81089 | 35727 ft | 513 kts | 350° |
| 2026-05-05 12:56 | 46.66888 | 8.80551 | 34804 ft | 516 kts | 350° |
| 2026-05-05 12:57 | 46.70468 | 8.80006 | 33823 ft | 520 kts | 349° |
| 2026-05-05 12:57 | 46.74083 | 8.79454 | 32689 ft | 523 kts | 350° |
| 2026-05-05 12:57 | 46.77709 | 8.78901 | 31656 ft | 524 kts | 351° |
| 2026-05-05 12:57 | 46.81341 | 8.78348 | 30618 ft | 525 kts | 351° |
| 2026-05-05 12:58 | 46.84925 | 8.77801 | 29558 ft | 526 kts | 352° |
| 2026-05-05 12:58 | 46.88532 | 8.77252 | 28499 ft | 524 kts | 352° |
| 2026-05-05 12:58 | 46.92141 | 8.76701 | 27664 ft | 518 kts | 352° |
| 2026-05-05 12:58 | 46.95702 | 8.76157 | 26877 ft | 511 kts | 352° |
| 2026-05-05 12:59 | 46.99196 | 8.75620 | 26108 ft | 503 kts | 352° |
| 2026-05-05 12:59 | 47.01467 | 8.75261 | 25605 ft | 489 kts | 352° |
| 2026-05-05 12:59 | 47.05963 | 8.74543 | 24616 ft | 483 kts | 352° |
| 2026-05-05 13:00 | 47.11391 | 8.73397 | 23372 ft | 475 kts | 347° |
| 2026-05-05 13:00 | 47.14609 | 8.72485 | 22524 ft | 469 kts | 347° |
| 2026-05-05 13:01 | 47.24021 | 8.69905 | 20518 ft | 451 kts | 348° |
| 2026-05-05 13:01 | 47.27058 | 8.68861 | 19952 ft | 446 kts | 340° |
| 2026-05-05 13:01 | 47.29907 | 8.67138 | 19396 ft | 441 kts | 333° |
| 2026-05-05 13:01 | 47.32681 | 8.65236 | 18825 ft | 438 kts | 333° |
| 2026-05-05 13:02 | 47.35434 | 8.63329 | 18273 ft | 435 kts | 333° |
| 2026-05-05 13:02 | 47.38006 | 8.61385 | 17652 ft | 410 kts | 328° |
| 2026-05-05 13:02 | 47.40388 | 8.59320 | 17006 ft | 385 kts | 326° |
| 2026-05-05 13:02 | 47.42586 | 8.57305 | 16381 ft | 362 kts | 322° |
| 2026-05-05 13:03 | 47.44402 | 8.54911 | 15771 ft | 338 kts | 307° |
| 2026-05-05 13:03 | 47.45620 | 8.52084 | 15166 ft | 317 kts | 290° |
| 2026-05-05 13:03 | 47.46258 | 8.49068 | 14577 ft | 299 kts | 277° |
| 2026-05-05 13:03 | 47.46576 | 8.46147 | 14016 ft | 288 kts | 275° |
| 2026-05-05 13:04 | 47.46847 | 8.43200 | 13423 ft | 291 kts | 274° |
| 2026-05-05 13:04 | 47.47120 | 8.40257 | 12781 ft | 284 kts | 275° |
| 2026-05-05 13:04 | 47.47389 | 8.37411 | 12153 ft | 275 kts | 274° |
| 2026-05-05 13:04 | 47.47651 | 8.34648 | 11567 ft | 267 kts | 274° |
| 2026-05-05 13:05 | 47.47902 | 8.32033 | 11174 ft | 254 kts | 274° |
| 2026-05-05 13:05 | 47.48147 | 8.29451 | 10896 ft | 253 kts | 274° |
| 2026-05-05 13:05 | 47.48387 | 8.26884 | 10663 ft | 252 kts | 273° |
| 2026-05-05 13:05 | 47.48629 | 8.24317 | 10453 ft | 252 kts | 274° |
| 2026-05-05 13:06 | 47.48872 | 8.21755 | 10250 ft | 251 kts | 274° |
| 2026-05-05 13:06 | 47.49113 | 8.19205 | 10058 ft | 251 kts | 273° |
| 2026-05-05 13:06 | 47.49354 | 8.16646 | 9866 ft | 250 kts | 273° |
| 2026-05-05 13:06 | 47.49592 | 8.14111 | 9665 ft | 248 kts | 273° |
| 2026-05-05 13:07 | 47.49829 | 8.11590 | 9466 ft | 248 kts | 274° |
| 2026-05-05 13:07 | 47.50163 | 8.09079 | 9244 ft | 251 kts | 283° |
| 2026-05-05 13:07 | 47.51005 | 8.06806 | 9042 ft | 260 kts | 305° |
| 2026-05-05 13:07 | 47.52413 | 8.05220 | 8852 ft | 269 kts | 331° |
| 2026-05-05 13:08 | 47.54222 | 8.04616 | 8772 ft | 265 kts | 354° |
| 2026-05-05 13:08 | 47.56004 | 8.04736 | 8706 ft | 256 kts | 6° |
| 2026-05-05 13:08 | 47.57654 | 8.05621 | 8456 ft | 251 kts | 32° |
| 2026-05-05 13:08 | 47.58920 | 8.07310 | 8118 ft | 241 kts | 48° |
| 2026-05-05 13:09 | 47.60004 | 8.09170 | 7744 ft | 234 kts | 51° |
| 2026-05-05 13:09 | 47.61025 | 8.11016 | 7359 ft | 228 kts | 51° |
| 2026-05-05 13:09 | 47.61986 | 8.12780 | 6999 ft | 223 kts | 51° |
| 2026-05-05 13:09 | 47.62957 | 8.14572 | 6649 ft | 222 kts | 51° |
| 2026-05-05 13:10 | 47.63926 | 8.16364 | 6281 ft | 224 kts | 51° |
| 2026-05-05 13:10 | 47.64888 | 8.18146 | 5926 ft | 225 kts | 51° |
| 2026-05-05 13:10 | 47.65834 | 8.19909 | 5537 ft | 220 kts | 51° |
| 2026-05-05 13:10 | 47.66730 | 8.21643 | 5168 ft | 210 kts | 56° |
| 2026-05-05 13:11 | 47.67310 | 8.23534 | 4987 ft | 200 kts | 77° |
| 2026-05-05 13:11 | 47.67417 | 8.25536 | 4980 ft | 197 kts | 95° |
| 2026-05-05 13:11 | 47.67001 | 8.27454 | 4984 ft | 194 kts | 125° |
| 2026-05-05 13:11 | 47.66192 | 8.28979 | 4978 ft | 188 kts | 140° |
| 2026-05-05 13:12 | 47.65248 | 8.30313 | 4982 ft | 187 kts | 143° |
| 2026-05-05 13:12 | 47.64292 | 8.31621 | 4983 ft | 187 kts | 143° |
| 2026-05-05 13:12 | 47.63335 | 8.32927 | 4983 ft | 187 kts | 143° |
| 2026-05-05 13:12 | 47.62380 | 8.34237 | 4984 ft | 187 kts | 142° |
| 2026-05-05 13:13 | 47.61424 | 8.35552 | 4943 ft | 188 kts | 142° |
| 2026-05-05 13:13 | 47.60477 | 8.36865 | 4726 ft | 183 kts | 142° |
| 2026-05-05 13:13 | 47.59554 | 8.38127 | 4489 ft | 179 kts | 142° |
| 2026-05-05 13:13 | 47.58653 | 8.39356 | 4204 ft | 173 kts | 141° |
| 2026-05-05 13:14 | 47.57791 | 8.40536 | 3976 ft | 165 kts | 141° |
| 2026-05-05 13:14 | 47.56965 | 8.41666 | 3759 ft | 158 kts | 140° |
| 2026-05-05 13:14 | 47.56178 | 8.42742 | 3555 ft | 149 kts | 140° |
| 2026-05-05 13:14 | 47.55440 | 8.43750 | 3368 ft | 140 kts | 141° |
| 2026-05-05 13:15 | 47.54747 | 8.44697 | 3199 ft | 136 kts | 141° |
| 2026-05-05 13:15 | 47.54041 | 8.45658 | 3019 ft | 136 kts | 141° |
| 2026-05-05 13:15 | 47.53374 | 8.46569 | 2833 ft | 132 kts | 141° |
| 2026-05-05 13:15 | 47.52682 | 8.47512 | 2662 ft | 134 kts | 143° |
| 2026-05-05 13:16 | 47.52002 | 8.48439 | 2485 ft | 135 kts | 142° |
| 2026-05-05 13:16 | 47.51299 | 8.49365 | 2304 ft | 136 kts | 141° |
| 2026-05-05 13:16 | 47.50599 | 8.50284 | 2080 ft | 133 kts | 140° |
| 2026-05-05 13:16 | 47.49926 | 8.51212 | 1877 ft | 131 kts | 138° |
| 2026-05-05 13:17 | 47.49260 | 8.52134 | 1735 ft | 133 kts | 137° |
| 2026-05-05 13:17 | 47.48597 | 8.53054 | 1563 ft | 130 kts | 137° |
| 2026-05-05 13:17 | 47.47935 | 8.53973 | 1421 ft | 129 kts | 138° |
| 2026-05-05 13:17 | 47.47342 | 8.54783 | 1407 ft | 101 kts | 137° |
| 2026-05-05 13:18 | 47.46898 | 8.55392 | 1405 ft | 75 kts | 137° |
| 2026-05-05 13:18 | 47.46576 | 8.55833 | 1412 ft | 52 kts | 137° |
| 2026-05-05 13:18 | 47.46357 | 8.56133 | 1416 ft | 40 kts | 137° |
| 2026-05-05 13:18 | 47.46216 | 8.56320 | 1421 ft | 17 kts | 143° |
| 2026-05-05 13:19 | 47.46102 | 8.56340 | 1420 ft | 17 kts | 186° |
| 2026-05-05 13:19 | 47.45976 | 8.56318 | 1423 ft | 20 kts | 187° |
| 2026-05-05 13:19 | 47.45889 | 8.56303 | 1420 ft | 0 kts | 185° |
| 2026-05-05 13:19 | 47.45867 | 8.56300 | 1425 ft | 10 kts | 185° |
| 2026-05-05 13:20 | 47.45829 | 8.56257 | 1425 ft | 8 kts | 240° |
| 2026-05-05 13:20 | 47.45829 | 8.56152 | 1423 ft | 14 kts | 277° |
| 2026-05-05 13:20 | 47.45842 | 8.55983 | 1417 ft | 19 kts | 276° |
| 2026-05-05 13:20 | 47.45857 | 8.55759 | 1414 ft | 24 kts | 276° |
| 2026-05-05 13:21 | 47.45876 | 8.55488 | 1413 ft | 29 kts | 276° |
| 2026-05-05 13:21 | 47.45897 | 8.55190 | 1409 ft | 23 kts | 276° |
| 2026-05-05 13:21 | 47.45903 | 8.55094 | 1408 ft | 6 kts | 276° |
| 2026-05-05 13:21 | 47.45879 | 8.55063 | 1411 ft | 10 kts | 194° |
| 2026-05-05 13:22 | 47.45795 | 8.55097 | 1407 ft | 15 kts | 155° |
| 2026-05-05 13:22 | 47.45681 | 8.55176 | 1410 ft | 20 kts | 155° |
| 2026-05-05 13:22 | 47.45541 | 8.55275 | 1409 ft | 25 kts | 154° |
| 2026-05-05 13:22 | 47.45374 | 8.55390 | 1409 ft | 28 kts | 155° |
| 2026-05-05 13:23 | 47.45221 | 8.55496 | 1417 ft | 21 kts | 155° |
| 2026-05-05 13:23 | 47.45070 | 8.55599 | 1411 ft | 27 kts | 155° |
| 2026-05-05 13:23 | 47.44972 | 8.55677 | 1414 ft | 7 kts | 128° |
| 2026-05-05 13:23 | 47.44951 | 8.55802 | 1411 ft | 12 kts | 91° |
| 2026-05-05 13:24 | 47.44942 | 8.55913 | 1412 ft | 8 kts | 114° |
| 2026-05-05 13:24 | 47.44905 | 8.55962 | 1412 ft | 8 kts | 154° |
| 2026-05-05 13:24 | 47.44838 | 8.56008 | 1410 ft | 13 kts | 155° |
| 2026-05-05 13:24 | 47.44774 | 8.56051 | 1411 ft | 0 kts | 155° |
| 2026-05-05 13:25 | 47.44767 | 8.56057 | 1412 ft | 3 kts | 155° |
| 2026-05-05 13:25 | 47.44750 | 8.56076 | 1414 ft | 1 kts | 121° |
| 2026-05-05 13:25 | 47.44752 | 8.56086 | 1414 ft | 3 kts | 81° |
| 2026-05-05 13:25 | 47.44773 | 8.56139 | 1411 ft | 6 kts | 62° |
| 2026-05-05 13:26 | 47.44784 | 8.56170 | 1412 ft | 0 kts | 65° |
| 2026-05-05 13:26 | 47.44785 | 8.56172 | 1412 ft | 0 kts | 64° |